sensor_id;sensor_type;location;lat;lon;timestamp;P1;durP1;ratioP1;P2;durP2;ratioP2
21591;SDS011;10958;50.892;3.992;2023-09-30T00:01:08;9.82;;;6.88;;
21591;SDS011;10958;50.892;3.992;2023-09-30T00:03:34;11.77;;;6.90;;
21591;SDS011;10958;50.892;3.992;2023-09-30T00:06:00;11.68;;;6.75;;
21591;SDS011;10958;50.892;3.992;2023-09-30T00:08:34;9.45;;;7.05;;
21591;SDS011;10958;50.892;3.992;2023-09-30T00:11:00;10.20;;;7.28;;
21591;SDS011;10958;50.892;3.992;2023-09-30T00:13:30;11.57;;;7.20;;
21591;SDS011;10958;50.892;3.992;2023-09-30T00:15:57;9.00;;;7.07;;
21591;SDS011;10958;50.892;3.992;2023-09-30T00:18:25;13.02;;;7.18;;
21591;SDS011;10958;50.892;3.992;2023-09-30T00:20:54;9.50;;;6.75;;
21591;SDS011;10958;50.892;3.992;2023-09-30T00:23:20;11.07;;;7.40;;
21591;SDS011;10958;50.892;3.992;2023-09-30T00:25:46;11.30;;;7.35;;
21591;SDS011;10958;50.892;3.992;2023-09-30T00:28:14;11.65;;;7.25;;
21591;SDS011;10958;50.892;3.992;2023-09-30T00:33:12;9.05;;;7.22;;
21591;SDS011;10958;50.892;3.992;2023-09-30T00:35:38;12.20;;;8.48;;
21591;SDS011;10958;50.892;3.992;2023-09-30T00:38:04;11.73;;;8.30;;
21591;SDS011;10958;50.892;3.992;2023-09-30T00:40:30;10.70;;;7.32;;
21591;SDS011;10958;50.892;3.992;2023-09-30T00:42:56;10.38;;;7.50;;
21591;SDS011;10958;50.892;3.992;2023-09-30T00:45:24;15.20;;;7.88;;
21591;SDS011;10958;50.892;3.992;2023-09-30T00:47:50;14.98;;;8.23;;
21591;SDS011;10958;50.892;3.992;2023-09-30T00:50:16;12.27;;;7.90;;
21591;SDS011;10958;50.892;3.992;2023-09-30T00:52:46;11.00;;;7.70;;
21591;SDS011;10958;50.892;3.992;2023-09-30T00:55:14;14.23;;;7.88;;
21591;SDS011;10958;50.892;3.992;2023-09-30T00:57:41;14.80;;;9.10;;
21591;SDS011;10958;50.892;3.992;2023-09-30T01:00:10;13.55;;;8.60;;
21591;SDS011;10958;50.892;3.992;2023-09-30T01:02:40;14.43;;;9.50;;
21591;SDS011;10958;50.892;3.992;2023-09-30T01:05:08;18.50;;;8.32;;
21591;SDS011;10958;50.892;3.992;2023-09-30T01:07:37;19.75;;;8.68;;
21591;SDS011;10958;50.892;3.992;2023-09-30T01:10:03;16.05;;;8.85;;
21591;SDS011;10958;50.892;3.992;2023-09-30T01:12:32;17.73;;;8.77;;
21591;SDS011;10958;50.892;3.992;2023-09-30T01:15:04;16.45;;;8.35;;
21591;SDS011;10958;50.892;3.992;2023-09-30T01:17:32;16.48;;;8.60;;
21591;SDS011;10958;50.892;3.992;2023-09-30T01:19:58;12.57;;;8.50;;
21591;SDS011;10958;50.892;3.992;2023-09-30T01:22:30;15.45;;;8.40;;
21591;SDS011;10958;50.892;3.992;2023-09-30T01:24:55;15.30;;;7.90;;
21591;SDS011;10958;50.892;3.992;2023-09-30T01:27:21;16.05;;;7.68;;
21591;SDS011;10958;50.892;3.992;2023-09-30T01:29:48;11.40;;;7.85;;
21591;SDS011;10958;50.892;3.992;2023-09-30T01:32:14;12.82;;;8.85;;
21591;SDS011;10958;50.892;3.992;2023-09-30T01:34:40;15.15;;;8.40;;
21591;SDS011;10958;50.892;3.992;2023-09-30T01:37:06;12.48;;;8.70;;
21591;SDS011;10958;50.892;3.992;2023-09-30T01:39:32;17.10;;;9.40;;
21591;SDS011;10958;50.892;3.992;2023-09-30T01:42:00;13.15;;;9.13;;
21591;SDS011;10958;50.892;3.992;2023-09-30T01:44:27;15.93;;;9.00;;
21591;SDS011;10958;50.892;3.992;2023-09-30T01:46:53;15.40;;;9.35;;
21591;SDS011;10958;50.892;3.992;2023-09-30T01:49:19;12.85;;;8.57;;
21591;SDS011;10958;50.892;3.992;2023-09-30T01:51:49;19.77;;;8.60;;
21591;SDS011;10958;50.892;3.992;2023-09-30T01:54:15;19.95;;;9.63;;
21591;SDS011;10958;50.892;3.992;2023-09-30T01:56:40;14.48;;;8.73;;
21591;SDS011;10958;50.892;3.992;2023-09-30T01:59:06;15.85;;;8.70;;
21591;SDS011;10958;50.892;3.992;2023-09-30T02:01:32;17.48;;;9.07;;
21591;SDS011;10958;50.892;3.992;2023-09-30T02:03:58;21.52;;;10.20;;
21591;SDS011;10958;50.892;3.992;2023-09-30T02:06:24;18.25;;;9.85;;
21591;SDS011;10958;50.892;3.992;2023-09-30T02:08:52;17.40;;;9.77;;
21591;SDS011;10958;50.892;3.992;2023-09-30T02:11:18;18.92;;;9.93;;
21591;SDS011;10958;50.892;3.992;2023-09-30T02:13:44;20.15;;;10.07;;
21591;SDS011;10958;50.892;3.992;2023-09-30T02:16:13;22.75;;;12.07;;
21591;SDS011;10958;50.892;3.992;2023-09-30T02:18:41;17.67;;;9.23;;
21591;SDS011;10958;50.892;3.992;2023-09-30T02:21:10;21.52;;;10.25;;
21591;SDS011;10958;50.892;3.992;2023-09-30T02:23:38;19.38;;;9.73;;
21591;SDS011;10958;50.892;3.992;2023-09-30T02:26:04;18.13;;;10.15;;
21591;SDS011;10958;50.892;3.992;2023-09-30T02:28:32;20.90;;;11.27;;
21591;SDS011;10958;50.892;3.992;2023-09-30T02:30:59;16.98;;;10.50;;
21591;SDS011;10958;50.892;3.992;2023-09-30T02:33:25;20.00;;;10.52;;
21591;SDS011;10958;50.892;3.992;2023-09-30T02:35:52;18.80;;;10.65;;
21591;SDS011;10958;50.892;3.992;2023-09-30T02:38:17;22.15;;;10.73;;
21591;SDS011;10958;50.892;3.992;2023-09-30T02:40:46;20.73;;;10.10;;
21591;SDS011;10958;50.892;3.992;2023-09-30T02:43:13;20.08;;;10.90;;
21591;SDS011;10958;50.892;3.992;2023-09-30T02:45:42;17.92;;;10.90;;
21591;SDS011;10958;50.892;3.992;2023-09-30T02:48:08;20.88;;;10.55;;
21591;SDS011;10958;50.892;3.992;2023-09-30T02:50:37;19.05;;;10.40;;
21591;SDS011;10958;50.892;3.992;2023-09-30T02:53:05;22.87;;;10.37;;
21591;SDS011;10958;50.892;3.992;2023-09-30T02:55:36;21.00;;;11.32;;
21591;SDS011;10958;50.892;3.992;2023-09-30T02:58:01;24.00;;;11.15;;
21591;SDS011;10958;50.892;3.992;2023-09-30T03:00:30;21.60;;;10.63;;
21591;SDS011;10958;50.892;3.992;2023-09-30T03:02:59;21.35;;;10.88;;
21591;SDS011;10958;50.892;3.992;2023-09-30T03:05:27;23.65;;;10.70;;
21591;SDS011;10958;50.892;3.992;2023-09-30T03:07:55;19.50;;;10.45;;
21591;SDS011;10958;50.892;3.992;2023-09-30T03:10:26;24.15;;;10.07;;
21591;SDS011;10958;50.892;3.992;2023-09-30T03:12:52;19.65;;;11.10;;
21591;SDS011;10958;50.892;3.992;2023-09-30T03:15:19;19.27;;;10.77;;
21591;SDS011;10958;50.892;3.992;2023-09-30T03:17:45;20.58;;;11.35;;
21591;SDS011;10958;50.892;3.992;2023-09-30T03:20:14;22.00;;;11.05;;
21591;SDS011;10958;50.892;3.992;2023-09-30T03:22:44;17.73;;;11.02;;
21591;SDS011;10958;50.892;3.992;2023-09-30T03:27:42;21.30;;;10.75;;
21591;SDS011;10958;50.892;3.992;2023-09-30T03:30:11;18.20;;;10.05;;
21591;SDS011;10958;50.892;3.992;2023-09-30T03:32:40;19.67;;;10.80;;
21591;SDS011;10958;50.892;3.992;2023-09-30T03:35:10;19.67;;;11.02;;
21591;SDS011;10958;50.892;3.992;2023-09-30T03:37:40;19.73;;;10.50;;
21591;SDS011;10958;50.892;3.992;2023-09-30T03:40:06;27.15;;;11.68;;
21591;SDS011;10958;50.892;3.992;2023-09-30T03:42:43;23.00;;;11.55;;
21591;SDS011;10958;50.892;3.992;2023-09-30T03:45:10;26.00;;;11.02;;
21591;SDS011;10958;50.892;3.992;2023-09-30T03:47:39;26.42;;;11.20;;
21591;SDS011;10958;50.892;3.992;2023-09-30T03:50:05;33.17;;;11.80;;
21591;SDS011;10958;50.892;3.992;2023-09-30T03:52:39;22.63;;;11.07;;
21591;SDS011;10958;50.892;3.992;2023-09-30T03:55:09;21.30;;;11.88;;
21591;SDS011;10958;50.892;3.992;2023-09-30T03:57:40;21.23;;;11.40;;
21591;SDS011;10958;50.892;3.992;2023-09-30T04:00:06;18.27;;;11.18;;
21591;SDS011;10958;50.892;3.992;2023-09-30T04:02:44;22.45;;;10.63;;
21591;SDS011;10958;50.892;3.992;2023-09-30T04:05:13;23.15;;;11.05;;
21591;SDS011;10958;50.892;3.992;2023-09-30T04:07:40;20.13;;;10.27;;
21591;SDS011;10958;50.892;3.992;2023-09-30T04:10:07;20.33;;;10.77;;
21591;SDS011;10958;50.892;3.992;2023-09-30T04:12:34;24.48;;;10.82;;
21591;SDS011;10958;50.892;3.992;2023-09-30T04:15:00;20.27;;;10.23;;
21591;SDS011;10958;50.892;3.992;2023-09-30T04:17:26;21.08;;;11.38;;
21591;SDS011;10958;50.892;3.992;2023-09-30T04:19:52;23.10;;;10.80;;
21591;SDS011;10958;50.892;3.992;2023-09-30T04:22:18;27.15;;;11.60;;
21591;SDS011;10958;50.892;3.992;2023-09-30T04:24:46;20.30;;;10.63;;
21591;SDS011;10958;50.892;3.992;2023-09-30T04:27:14;21.60;;;11.80;;
21591;SDS011;10958;50.892;3.992;2023-09-30T04:29:43;27.48;;;12.13;;
21591;SDS011;10958;50.892;3.992;2023-09-30T04:32:08;27.02;;;11.98;;
21591;SDS011;10958;50.892;3.992;2023-09-30T04:34:35;23.92;;;11.55;;
21591;SDS011;10958;50.892;3.992;2023-09-30T04:37:00;23.55;;;11.77;;
21591;SDS011;10958;50.892;3.992;2023-09-30T04:39:27;27.13;;;12.18;;
21591;SDS011;10958;50.892;3.992;2023-09-30T04:41:53;25.02;;;13.02;;
21591;SDS011;10958;50.892;3.992;2023-09-30T04:44:20;24.60;;;11.77;;
21591;SDS011;10958;50.892;3.992;2023-09-30T04:46:47;22.92;;;11.68;;
21591;SDS011;10958;50.892;3.992;2023-09-30T04:49:15;23.45;;;11.05;;
21591;SDS011;10958;50.892;3.992;2023-09-30T04:51:42;22.98;;;11.13;;
21591;SDS011;10958;50.892;3.992;2023-09-30T04:54:09;24.50;;;12.45;;
21591;SDS011;10958;50.892;3.992;2023-09-30T04:56:38;27.83;;;11.48;;
21591;SDS011;10958;50.892;3.992;2023-09-30T04:59:04;24.27;;;12.05;;
21591;SDS011;10958;50.892;3.992;2023-09-30T05:01:30;21.17;;;11.35;;
21591;SDS011;10958;50.892;3.992;2023-09-30T05:03:56;28.95;;;12.90;;
21591;SDS011;10958;50.892;3.992;2023-09-30T05:06:22;25.45;;;10.93;;
21591;SDS011;10958;50.892;3.992;2023-09-30T05:08:48;29.75;;;11.90;;
21591;SDS011;10958;50.892;3.992;2023-09-30T05:11:20;24.55;;;11.27;;
21591;SDS011;10958;50.892;3.992;2023-09-30T05:13:46;30.30;;;11.60;;
21591;SDS011;10958;50.892;3.992;2023-09-30T05:16:12;24.55;;;12.30;;
21591;SDS011;10958;50.892;3.992;2023-09-30T05:18:38;28.00;;;12.15;;
21591;SDS011;10958;50.892;3.992;2023-09-30T05:21:04;31.48;;;12.23;;
21591;SDS011;10958;50.892;3.992;2023-09-30T05:23:32;29.10;;;12.77;;
21591;SDS011;10958;50.892;3.992;2023-09-30T05:25:58;28.10;;;12.88;;
21591;SDS011;10958;50.892;3.992;2023-09-30T05:28:31;28.30;;;12.32;;
21591;SDS011;10958;50.892;3.992;2023-09-30T05:30:57;25.85;;;11.45;;
21591;SDS011;10958;50.892;3.992;2023-09-30T05:33:23;23.58;;;11.93;;
21591;SDS011;10958;50.892;3.992;2023-09-30T05:35:49;23.08;;;11.18;;
21591;SDS011;10958;50.892;3.992;2023-09-30T05:38:15;24.40;;;12.10;;
21591;SDS011;10958;50.892;3.992;2023-09-30T05:40:43;24.77;;;12.02;;
21591;SDS011;10958;50.892;3.992;2023-09-30T05:43:09;24.30;;;10.38;;
21591;SDS011;10958;50.892;3.992;2023-09-30T05:45:37;25.60;;;11.75;;
21591;SDS011;10958;50.892;3.992;2023-09-30T05:48:14;29.25;;;11.27;;
21591;SDS011;10958;50.892;3.992;2023-09-30T05:50:41;25.20;;;11.20;;
21591;SDS011;10958;50.892;3.992;2023-09-30T05:53:07;31.70;;;11.48;;
21591;SDS011;10958;50.892;3.992;2023-09-30T05:55:35;23.85;;;10.00;;
21591;SDS011;10958;50.892;3.992;2023-09-30T05:58:02;25.20;;;12.05;;
21591;SDS011;10958;50.892;3.992;2023-09-30T06:00:28;24.60;;;10.98;;
21591;SDS011;10958;50.892;3.992;2023-09-30T06:03:00;26.15;;;11.20;;
21591;SDS011;10958;50.892;3.992;2023-09-30T06:05:27;27.98;;;10.75;;
21591;SDS011;10958;50.892;3.992;2023-09-30T06:07:55;26.45;;;11.60;;
21591;SDS011;10958;50.892;3.992;2023-09-30T06:10:23;29.05;;;11.55;;
21591;SDS011;10958;50.892;3.992;2023-09-30T06:12:54;28.02;;;12.32;;
21591;SDS011;10958;50.892;3.992;2023-09-30T06:15:29;27.13;;;11.90;;
21591;SDS011;10958;50.892;3.992;2023-09-30T06:17:57;26.70;;;10.93;;
21591;SDS011;10958;50.892;3.992;2023-09-30T06:20:23;29.83;;;12.15;;
21591;SDS011;10958;50.892;3.992;2023-09-30T06:22:51;28.27;;;11.50;;
21591;SDS011;10958;50.892;3.992;2023-09-30T06:25:19;25.73;;;12.45;;
21591;SDS011;10958;50.892;3.992;2023-09-30T06:27:47;29.05;;;11.50;;
21591;SDS011;10958;50.892;3.992;2023-09-30T06:30:16;30.63;;;11.40;;
21591;SDS011;10958;50.892;3.992;2023-09-30T06:32:44;25.17;;;10.82;;
21591;SDS011;10958;50.892;3.992;2023-09-30T06:35:10;27.42;;;10.32;;
21591;SDS011;10958;50.892;3.992;2023-09-30T06:37:39;27.88;;;11.10;;
21591;SDS011;10958;50.892;3.992;2023-09-30T06:40:09;25.17;;;10.60;;
21591;SDS011;10958;50.892;3.992;2023-09-30T06:42:37;28.63;;;11.35;;
21591;SDS011;10958;50.892;3.992;2023-09-30T06:45:05;29.98;;;9.77;;
21591;SDS011;10958;50.892;3.992;2023-09-30T06:47:32;19.80;;;9.63;;
21591;SDS011;10958;50.892;3.992;2023-09-30T06:50:02;25.92;;;9.50;;
21591;SDS011;10958;50.892;3.992;2023-09-30T06:52:37;20.77;;;7.25;;
21591;SDS011;10958;50.892;3.992;2023-09-30T06:55:07;19.33;;;6.97;;
21591;SDS011;10958;50.892;3.992;2023-09-30T06:57:39;17.92;;;6.72;;
21591;SDS011;10958;50.892;3.992;2023-09-30T07:00:11;16.20;;;5.78;;
21591;SDS011;10958;50.892;3.992;2023-09-30T07:02:39;18.00;;;5.78;;
21591;SDS011;10958;50.892;3.992;2023-09-30T07:05:11;18.38;;;5.72;;
21591;SDS011;10958;50.892;3.992;2023-09-30T07:07:40;17.52;;;4.90;;
21591;SDS011;10958;50.892;3.992;2023-09-30T07:10:10;16.23;;;5.38;;
21591;SDS011;10958;50.892;3.992;2023-09-30T07:12:36;15.48;;;4.88;;
21591;SDS011;10958;50.892;3.992;2023-09-30T07:15:03;14.05;;;5.65;;
21591;SDS011;10958;50.892;3.992;2023-09-30T07:17:29;14.80;;;5.20;;
21591;SDS011;10958;50.892;3.992;2023-09-30T07:22:24;18.08;;;5.18;;
21591;SDS011;10958;50.892;3.992;2023-09-30T07:24:50;14.30;;;4.75;;
21591;SDS011;10958;50.892;3.992;2023-09-30T07:27:16;12.07;;;4.95;;
21591;SDS011;10958;50.892;3.992;2023-09-30T07:29:47;15.65;;;4.75;;
21591;SDS011;10958;50.892;3.992;2023-09-30T07:32:17;17.05;;;4.82;;
21591;SDS011;10958;50.892;3.992;2023-09-30T07:34:48;15.45;;;4.65;;
21591;SDS011;10958;50.892;3.992;2023-09-30T07:37:14;16.00;;;5.22;;
21591;SDS011;10958;50.892;3.992;2023-09-30T07:39:45;13.85;;;4.32;;
21591;SDS011;10958;50.892;3.992;2023-09-30T07:42:20;19.08;;;4.85;;
21591;SDS011;10958;50.892;3.992;2023-09-30T07:44:47;16.42;;;4.95;;
21591;SDS011;10958;50.892;3.992;2023-09-30T07:47:14;19.35;;;4.55;;
21591;SDS011;10958;50.892;3.992;2023-09-30T07:49:40;13.60;;;4.65;;
21591;SDS011;10958;50.892;3.992;2023-09-30T07:52:06;14.90;;;4.82;;
21591;SDS011;10958;50.892;3.992;2023-09-30T07:54:34;19.55;;;4.93;;
21591;SDS011;10958;50.892;3.992;2023-09-30T07:57:00;14.10;;;5.00;;
21591;SDS011;10958;50.892;3.992;2023-09-30T07:59:28;18.83;;;5.25;;
21591;SDS011;10958;50.892;3.992;2023-09-30T08:01:54;15.07;;;4.57;;
21591;SDS011;10958;50.892;3.992;2023-09-30T08:04:20;21.40;;;4.80;;
21591;SDS011;10958;50.892;3.992;2023-09-30T08:06:46;12.90;;;4.97;;
21591;SDS011;10958;50.892;3.992;2023-09-30T08:09:13;14.43;;;4.45;;
21591;SDS011;10958;50.892;3.992;2023-09-30T08:11:43;16.25;;;4.35;;
21591;SDS011;10958;50.892;3.992;2023-09-30T08:14:12;16.05;;;4.05;;
21591;SDS011;10958;50.892;3.992;2023-09-30T08:16:40;13.27;;;3.70;;
21591;SDS011;10958;50.892;3.992;2023-09-30T08:19:06;28.35;;;5.18;;
21591;SDS011;10958;50.892;3.992;2023-09-30T08:21:32;14.40;;;4.22;;
21591;SDS011;10958;50.892;3.992;2023-09-30T08:24:02;22.88;;;5.03;;
21591;SDS011;10958;50.892;3.992;2023-09-30T08:26:39;16.33;;;5.10;;
21591;SDS011;10958;50.892;3.992;2023-09-30T08:31:31;15.63;;;5.43;;
21591;SDS011;10958;50.892;3.992;2023-09-30T08:33:58;17.63;;;5.20;;
21591;SDS011;10958;50.892;3.992;2023-09-30T08:36:23;17.73;;;5.65;;
21591;SDS011;10958;50.892;3.992;2023-09-30T08:38:49;19.42;;;5.53;;
21591;SDS011;10958;50.892;3.992;2023-09-30T08:41:30;14.55;;;4.82;;
21591;SDS011;10958;50.892;3.992;2023-09-30T08:43:58;20.20;;;5.47;;
21591;SDS011;10958;50.892;3.992;2023-09-30T08:46:28;23.45;;;5.53;;
21591;SDS011;10958;50.892;3.992;2023-09-30T08:49:02;17.67;;;5.22;;
21591;SDS011;10958;50.892;3.992;2023-09-30T08:51:29;18.67;;;5.38;;
21591;SDS011;10958;50.892;3.992;2023-09-30T08:53:56;15.57;;;5.38;;
21591;SDS011;10958;50.892;3.992;2023-09-30T08:56:24;21.85;;;6.68;;
21591;SDS011;10958;50.892;3.992;2023-09-30T08:58:54;14.93;;;5.63;;
21591;SDS011;10958;50.892;3.992;2023-09-30T09:01:23;13.25;;;5.20;;
21591;SDS011;10958;50.892;3.992;2023-09-30T09:03:50;12.98;;;5.80;;
21591;SDS011;10958;50.892;3.992;2023-09-30T09:06:18;19.52;;;6.60;;
21591;SDS011;10958;50.892;3.992;2023-09-30T09:08:48;16.65;;;6.88;;
21591;SDS011;10958;50.892;3.992;2023-09-30T09:11:17;21.08;;;6.97;;
21591;SDS011;10958;50.892;3.992;2023-09-30T09:13:47;16.80;;;6.60;;
21591;SDS011;10958;50.892;3.992;2023-09-30T09:16:16;19.73;;;7.10;;
21591;SDS011;10958;50.892;3.992;2023-09-30T09:18:45;18.55;;;6.47;;
21591;SDS011;10958;50.892;3.992;2023-09-30T09:21:16;21.10;;;6.22;;
21591;SDS011;10958;50.892;3.992;2023-09-30T09:23:43;16.05;;;5.35;;
21591;SDS011;10958;50.892;3.992;2023-09-30T09:28:51;15.85;;;4.97;;
21591;SDS011;10958;50.892;3.992;2023-09-30T09:31:22;16.67;;;5.20;;
21591;SDS011;10958;50.892;3.992;2023-09-30T09:33:59;15.88;;;4.70;;
21591;SDS011;10958;50.892;3.992;2023-09-30T09:39:33;12.70;;;4.88;;
21591;SDS011;10958;50.892;3.992;2023-09-30T09:41:59;19.00;;;4.95;;
21591;SDS011;10958;50.892;3.992;2023-09-30T09:44:26;15.70;;;4.53;;
21591;SDS011;10958;50.892;3.992;2023-09-30T09:46:57;20.48;;;5.00;;
21591;SDS011;10958;50.892;3.992;2023-09-30T09:49:24;19.00;;;5.35;;
21591;SDS011;10958;50.892;3.992;2023-09-30T09:51:50;13.85;;;5.05;;
21591;SDS011;10958;50.892;3.992;2023-09-30T09:54:18;19.45;;;5.05;;
21591;SDS011;10958;50.892;3.992;2023-09-30T09:56:44;16.70;;;4.35;;
21591;SDS011;10958;50.892;3.992;2023-09-30T09:59:11;18.27;;;4.55;;
21591;SDS011;10958;50.892;3.992;2023-09-30T10:03:38;19.52;;;4.97;;
21591;SDS011;10958;50.892;3.992;2023-09-30T10:06:06;19.67;;;5.70;;
21591;SDS011;10958;50.892;3.992;2023-09-30T10:08:38;15.60;;;4.68;;
21591;SDS011;10958;50.892;3.992;2023-09-30T10:11:16;15.48;;;4.60;;
21591;SDS011;10958;50.892;3.992;2023-09-30T10:13:49;16.10;;;4.22;;
21591;SDS011;10958;50.892;3.992;2023-09-30T10:19:20;15.50;;;4.25;;
21591;SDS011;10958;50.892;3.992;2023-09-30T10:24:41;15.52;;;4.65;;
21591;SDS011;10958;50.892;3.992;2023-09-30T10:35:18;15.05;;;4.68;;
21591;SDS011;10958;50.892;3.992;2023-09-30T10:37:44;13.57;;;3.92;;
21591;SDS011;10958;50.892;3.992;2023-09-30T10:40:32;18.92;;;4.40;;
21591;SDS011;10958;50.892;3.992;2023-09-30T10:42:57;12.07;;;3.97;;
21591;SDS011;10958;50.892;3.992;2023-09-30T10:51:03;14.73;;;4.13;;
21591;SDS011;10958;50.892;3.992;2023-09-30T10:53:43;11.88;;;3.63;;
21591;SDS011;10958;50.892;3.992;2023-09-30T10:56:14;13.32;;;3.95;;
21591;SDS011;10958;50.892;3.992;2023-09-30T11:01:22;18.67;;;3.42;;
21591;SDS011;10958;50.892;3.992;2023-09-30T11:03:49;12.23;;;2.95;;
21591;SDS011;10958;50.892;3.992;2023-09-30T11:06:20;17.08;;;3.30;;
21591;SDS011;10958;50.892;3.992;2023-09-30T11:08:53;13.97;;;3.27;;
21591;SDS011;10958;50.892;3.992;2023-09-30T11:11:36;10.25;;;3.03;;
21591;SDS011;10958;50.892;3.992;2023-09-30T11:16:56;14.75;;;3.33;;
21591;SDS011;10958;50.892;3.992;2023-09-30T11:19:23;11.68;;;3.13;;
21591;SDS011;10958;50.892;3.992;2023-09-30T11:21:50;13.07;;;2.85;;
21591;SDS011;10958;50.892;3.992;2023-09-30T11:24:18;11.68;;;2.65;;
21591;SDS011;10958;50.892;3.992;2023-09-30T11:26:44;11.35;;;3.20;;
21591;SDS011;10958;50.892;3.992;2023-09-30T11:29:14;11.48;;;3.10;;
21591;SDS011;10958;50.892;3.992;2023-09-30T11:31:41;18.55;;;3.25;;
21591;SDS011;10958;50.892;3.992;2023-09-30T11:34:08;11.65;;;2.60;;
21591;SDS011;10958;50.892;3.992;2023-09-30T11:36:41;11.83;;;3.07;;
21591;SDS011;10958;50.892;3.992;2023-09-30T11:39:26;12.95;;;2.70;;
21591;SDS011;10958;50.892;3.992;2023-09-30T11:41:54;10.13;;;2.63;;
21591;SDS011;10958;50.892;3.992;2023-09-30T11:44:22;11.25;;;2.60;;
21591;SDS011;10958;50.892;3.992;2023-09-30T11:46:54;15.23;;;3.15;;
21591;SDS011;10958;50.892;3.992;2023-09-30T11:49:37;8.23;;;2.00;;
21591;SDS011;10958;50.892;3.992;2023-09-30T11:52:13;7.07;;;2.42;;
21591;SDS011;10958;50.892;3.992;2023-09-30T11:55:07;3.60;;;1.52;;
21591;SDS011;10958;50.892;3.992;2023-09-30T11:57:44;7.43;;;2.40;;
21591;SDS011;10958;50.892;3.992;2023-09-30T12:00:13;5.90;;;2.13;;
21591;SDS011;10958;50.892;3.992;2023-09-30T12:02:43;7.70;;;1.98;;
21591;SDS011;10958;50.892;3.992;2023-09-30T12:05:20;12.35;;;2.28;;
21591;SDS011;10958;50.892;3.992;2023-09-30T12:07:58;6.78;;;1.83;;
21591;SDS011;10958;50.892;3.992;2023-09-30T12:10:33;6.05;;;1.92;;
21591;SDS011;10958;50.892;3.992;2023-09-30T12:12:59;10.38;;;2.67;;
21591;SDS011;10958;50.892;3.992;2023-09-30T12:15:25;8.73;;;2.00;;
21591;SDS011;10958;50.892;3.992;2023-09-30T12:17:52;8.32;;;2.58;;
21591;SDS011;10958;50.892;3.992;2023-09-30T12:20:20;7.18;;;2.15;;
21591;SDS011;10958;50.892;3.992;2023-09-30T12:22:46;10.13;;;2.53;;
21591;SDS011;10958;50.892;3.992;2023-09-30T12:25:11;8.88;;;2.33;;
21591;SDS011;10958;50.892;3.992;2023-09-30T12:27:37;7.82;;;2.53;;
21591;SDS011;10958;50.892;3.992;2023-09-30T12:30:05;13.05;;;2.63;;
21591;SDS011;10958;50.892;3.992;2023-09-30T12:32:31;10.95;;;2.40;;
21591;SDS011;10958;50.892;3.992;2023-09-30T12:34:57;11.18;;;2.45;;
21591;SDS011;10958;50.892;3.992;2023-09-30T12:37:23;7.88;;;2.25;;
21591;SDS011;10958;50.892;3.992;2023-09-30T12:39:49;6.80;;;2.10;;
21591;SDS011;10958;50.892;3.992;2023-09-30T12:42:15;6.88;;;2.53;;
21591;SDS011;10958;50.892;3.992;2023-09-30T12:44:41;6.68;;;2.35;;
21591;SDS011;10958;50.892;3.992;2023-09-30T12:47:06;6.90;;;2.05;;
21591;SDS011;10958;50.892;3.992;2023-09-30T12:49:32;9.18;;;2.28;;
21591;SDS011;10958;50.892;3.992;2023-09-30T12:51:58;7.38;;;2.60;;
21591;SDS011;10958;50.892;3.992;2023-09-30T12:54:24;7.60;;;2.20;;
21591;SDS011;10958;50.892;3.992;2023-09-30T12:56:50;9.52;;;2.15;;
21591;SDS011;10958;50.892;3.992;2023-09-30T12:59:16;9.05;;;2.33;;
21591;SDS011;10958;50.892;3.992;2023-09-30T13:01:43;8.07;;;2.40;;
21591;SDS011;10958;50.892;3.992;2023-09-30T13:04:09;6.68;;;2.83;;
21591;SDS011;10958;50.892;3.992;2023-09-30T13:06:36;8.63;;;2.38;;
21591;SDS011;10958;50.892;3.992;2023-09-30T13:09:02;8.88;;;1.95;;
21591;SDS011;10958;50.892;3.992;2023-09-30T13:11:30;8.52;;;2.40;;
21591;SDS011;10958;50.892;3.992;2023-09-30T13:13:56;7.97;;;1.90;;
21591;SDS011;10958;50.892;3.992;2023-09-30T13:16:22;5.45;;;2.13;;
21591;SDS011;10958;50.892;3.992;2023-09-30T13:18:47;11.63;;;2.40;;
21591;SDS011;10958;50.892;3.992;2023-09-30T13:21:15;8.23;;;2.17;;
21591;SDS011;10958;50.892;3.992;2023-09-30T13:23:40;9.38;;;1.80;;
21591;SDS011;10958;50.892;3.992;2023-09-30T13:26:07;5.65;;;2.05;;
21591;SDS011;10958;50.892;3.992;2023-09-30T13:28:33;8.43;;;2.20;;
21591;SDS011;10958;50.892;3.992;2023-09-30T13:30:58;8.45;;;2.20;;
21591;SDS011;10958;50.892;3.992;2023-09-30T13:33:27;10.20;;;2.38;;
21591;SDS011;10958;50.892;3.992;2023-09-30T13:35:52;8.13;;;2.65;;
21591;SDS011;10958;50.892;3.992;2023-09-30T13:38:20;7.20;;;2.50;;
21591;SDS011;10958;50.892;3.992;2023-09-30T13:43:14;10.35;;;2.10;;
21591;SDS011;10958;50.892;3.992;2023-09-30T13:45:40;5.43;;;2.22;;
21591;SDS011;10958;50.892;3.992;2023-09-30T13:48:06;7.68;;;2.33;;
21591;SDS011;10958;50.892;3.992;2023-09-30T13:50:31;7.82;;;1.90;;
21591;SDS011;10958;50.892;3.992;2023-09-30T13:52:57;7.57;;;2.33;;
21591;SDS011;10958;50.892;3.992;2023-09-30T13:55:25;9.73;;;2.00;;
21591;SDS011;10958;50.892;3.992;2023-09-30T13:57:51;9.43;;;2.35;;
21591;SDS011;10958;50.892;3.992;2023-09-30T14:00:17;10.93;;;2.20;;
21591;SDS011;10958;50.892;3.992;2023-09-30T14:02:43;9.52;;;2.25;;
21591;SDS011;10958;50.892;3.992;2023-09-30T14:05:09;6.38;;;2.20;;
21591;SDS011;10958;50.892;3.992;2023-09-30T14:07:36;7.28;;;2.08;;
21591;SDS011;10958;50.892;3.992;2023-09-30T14:10:03;6.13;;;2.13;;
21591;SDS011;10958;50.892;3.992;2023-09-30T14:12:29;8.48;;;2.08;;
21591;SDS011;10958;50.892;3.992;2023-09-30T14:14:56;10.80;;;2.50;;
21591;SDS011;10958;50.892;3.992;2023-09-30T14:17:22;8.63;;;2.47;;
21591;SDS011;10958;50.892;3.992;2023-09-30T14:19:47;6.82;;;2.13;;
21591;SDS011;10958;50.892;3.992;2023-09-30T14:22:14;11.75;;;2.60;;
21591;SDS011;10958;50.892;3.992;2023-09-30T14:24:40;5.47;;;2.30;;
21591;SDS011;10958;50.892;3.992;2023-09-30T14:27:08;11.50;;;2.10;;
21591;SDS011;10958;50.892;3.992;2023-09-30T14:29:34;8.32;;;1.88;;
21591;SDS011;10958;50.892;3.992;2023-09-30T14:32:00;8.50;;;1.90;;
21591;SDS011;10958;50.892;3.992;2023-09-30T14:34:26;7.80;;;2.00;;
21591;SDS011;10958;50.892;3.992;2023-09-30T14:36:52;7.95;;;2.15;;
21591;SDS011;10958;50.892;3.992;2023-09-30T14:39:18;9.88;;;2.25;;
21591;SDS011;10958;50.892;3.992;2023-09-30T14:41:44;8.65;;;2.35;;
21591;SDS011;10958;50.892;3.992;2023-09-30T14:44:10;7.25;;;2.65;;
21591;SDS011;10958;50.892;3.992;2023-09-30T14:46:37;8.65;;;2.35;;
21591;SDS011;10958;50.892;3.992;2023-09-30T14:49:03;10.25;;;2.60;;
21591;SDS011;10958;50.892;3.992;2023-09-30T14:51:31;10.07;;;2.20;;
21591;SDS011;10958;50.892;3.992;2023-09-30T14:53:57;9.50;;;2.40;;
21591;SDS011;10958;50.892;3.992;2023-09-30T14:56:23;8.98;;;2.25;;
21591;SDS011;10958;50.892;3.992;2023-09-30T14:58:49;9.18;;;1.83;;
21591;SDS011;10958;50.892;3.992;2023-09-30T15:01:15;9.77;;;2.70;;
21591;SDS011;10958;50.892;3.992;2023-09-30T15:03:40;8.55;;;2.13;;
21591;SDS011;10958;50.892;3.992;2023-09-30T15:06:08;8.00;;;2.65;;
21591;SDS011;10958;50.892;3.992;2023-09-30T15:08:34;8.57;;;2.25;;
21591;SDS011;10958;50.892;3.992;2023-09-30T15:11:00;7.25;;;2.78;;
21591;SDS011;10958;50.892;3.992;2023-09-30T15:13:27;7.80;;;2.42;;
21591;SDS011;10958;50.892;3.992;2023-09-30T15:15:53;8.68;;;2.30;;
21591;SDS011;10958;50.892;3.992;2023-09-30T15:18:20;7.15;;;2.38;;
21591;SDS011;10958;50.892;3.992;2023-09-30T15:20:51;8.45;;;2.05;;
21591;SDS011;10958;50.892;3.992;2023-09-30T15:23:17;7.93;;;3.03;;